Weather observations for the past three days for
Detroit Lakes Airport-Wething Field
Metric (Imperial)
Date Time (cdt) Wind (kph) Vis. (km) Weather Sky Cond. Temperature (ºC) Relative Humidity Wind Chill (°C) Heat Index (°C) Pressure Precipitation (cm)
Air Dwpt 6 hour altimeter (cm) sea level (mb) 1 hr 3 hr 6 hr
Max. Min.
10 11:35 N 26 G 33 16.09 Fair CLR 8.1 -4.5 41% 5 76.63 0.0
10 11:15 N 20 G 37 14.48 Fair CLR 7.7 -4.5 42% 5 76.63 0.0
10 10:55 NW 22 16.09 Fair CLR 7.3 -4.7 43% 4 76.63 0.0
10 10:35 NW 20 G 33 14.48 Fair CLR 7.1 -4.6 44% 4 76.63 0.0
10 10:15 NW 28 G 37 14.48 Fair CLR 6.5 -4.1 47% 3 76.61 0.0
10 09:55 N 22 14.48 Fair CLR 6.7 -3.8 47% 3 76.61 0.0
10 09:35 N 26 14.48 Fair CLR 6 -4.4 48% 2 76.61 0.0
10 09:15 N 22 14.48 Fair CLR 6 -3.9 49% 2 76.61 0.0
10 08:55 N 22 14.48 Fair CLR 5.7 -4 50% 2 76.58 0.0
10 08:35 N 20 14.48 Fair CLR 5.2 -4.4 50% 2 76.58 0.0
10 08:15 N 22 14.48 Fair CLR 4.9 -4 53% 1 76.56 0.0
10 07:55 N 17 14.48 Fair CLR 4.8 -3.4 56% 2 76.53 0.0
10 07:35 N 15 16.09 A Few Clouds FEW070 4.4 -3 59% 1 76.53 0.0
10 07:15 N 15 14.48 Partly Cloudy SCT070 4 -2.7 62% 1 76.5 0.0
10 06:55 N 17 16.09 Overcast OVC070 4.2 -3.2 6.1 3.8 59% 1 76.48 0.0
10 06:35 N 11 16.09 Overcast OVC075 3.9 -3.3 60% 1 76.45 0.0
10 06:15 N 13 16.09 Overcast OVC075 3.8 -3.3 60% 1 76.45 0.0
10 05:55 N 17 16.09 Overcast OVC080 4.3 -4 55% 1 76.43 0.0
10 05:35 N 19 16.09 Overcast OVC080 4.4 -2.8 60% 1 76.43 0.0
10 05:15 N 11 16.09 Overcast OVC075 4.8 -1.2 65% 3 76.4 0.0
10 04:55 N 17 16.09 Overcast BKN070 OVC085 5.2 0.3 71% 2 76.38 0.0
10 04:35 N 17 16.09 Overcast SCT065 OVC090 5.1 0.4 72% 2 76.35 0.0
10 04:15 N 17 14.48 Overcast FEW060 OVC085 5.1 -0.1 69% 2 76.33 0.0
10 03:55 NW 11 16.09 Overcast FEW065 OVC090 5 -0.1 70% 3 76.3 0.0
10 03:35 NW 11 16.09 Overcast OVC090 5.4 -0.5 66% 3 76.3 0.0
10 03:15 NW 9 14.48 Overcast SCT065 OVC090 5.5 -0.4 66% 4 76.28 0.0
10 02:55 NW 9 16.09 Overcast FEW070 OVC090 5.7 -0.2 66% 4 76.25 0.0
10 02:35 NW 9 16.09 Overcast FEW070 OVC090 5.7 -0.1 67% 4 76.23 0.0
10 02:15 NW 7 16.09 Overcast FEW070 OVC095 5.6 -0.5 65% 4 76.23 0.0
10 01:55 NW 6 16.09 Overcast OVC090 5.8 0.1 67% 76.23 0.0
10 01:35 N 9 16.09 Overcast OVC090 6.1 -0.4 63% 4 76.23 0.0
10 01:15 NW 13 16.09 Overcast OVC090 5.6 -0.6 65% 3 76.2 0.0
10 00:55 NW 11 16.09 Overcast OVC090 5.7 -0.5 10.8 5 65% 4 76.17 0.0
10 00:35 NW 7 16.09 Overcast OVC090 6.5 -1.6 57% 5 76.15 0.0
10 00:15 W 6 16.09 Overcast OVC085 6 -0.9 62% 76.15 0.0
09 23:55 NW 11 16.09 Overcast FEW065 OVC090 5.9 0.7 70% 4 76.15 0.0
09 23:35 W 6 16.09 Overcast OVC090 6.3 0.3 66% 76.12 0.0
09 23:15 Calm 16.09 Overcast OVC085 6.2 0.7 68% 76.12 0.0
09 22:55 NW 6 16.09 Overcast OVC085 5.6 -1.3 62% 76.12 0.0
09 22:35 NW 6 16.09 Overcast FEW070 OVC090 5.1 -0.4 68% 76.12 0.0
09 22:15 Calm 16.09 Mostly Cloudy FEW075 BKN090 6 -1.1 61% 76.1 0.0
09 21:55 NW 6 16.09 A Few Clouds FEW095 6.7 -3.5 49% 76.1 0.0
09 21:35 NW 6 16.09 Partly Cloudy SCT090 6.6 -3.2 50% 76.07 0.0
09 21:15 N 11 16.09 Overcast OVC090 7.4 -3.4 47% 6 76.05 0.0
09 20:55 NW 11 16.09 Overcast OVC090 8.9 -3.7 41% 7 76.05 0.0
09 20:35 NW 13 16.09 Overcast OVC090 9.5 -3.8 39% 8 76.02 0.0
09 20:15 N 19 16.09 Overcast OVC090 9.9 -4.3 37% 8 76.02 0.0
09 19:55 N 15 16.09 Overcast FEW070 OVC090 10.2 -4.4 36% 76 0.0
09 19:35 NW 22 16.09 Overcast FEW070 OVC090 10.4 -4.5 35% 76 0.0
09 19:15 NW 26 G 35 16.09 Mostly Cloudy BKN080 10.6 -4.9 34% 76 0.0
09 18:55 NW 28 G 37 16.09 Mostly Cloudy BKN080 11.8 -4.5 13.9 10.4 32% 75.97 0.0
09 18:35 NW 28 G 39 16.09 Mostly Cloudy BKN080 11.7 -5.3 30% 75.95 0.0
09 18:15 NW 28 16.09 Mostly Cloudy BKN080 11.3 -5.3 31% 75.95 0.0
09 17:55 NW 33 G 44 16.09 Mostly Cloudy and Breezy BKN075 12.5 -4.8 30% 75.92 0.0
09 17:35 NW 31 G 43 16.09 Partly Cloudy SCT080 12.3 -5.6 28% 75.92 0.0
09 17:15 NW 28 14.48 Partly Cloudy SCT075 12.8 -4.3 30% 75.92 0.0
09 16:55 NW 28 G 44 14.48 Mostly Cloudy BKN070 12.5 -4.5 31% 75.9 0.0
09 16:35 NW 26 G 46 16.09 Mostly Cloudy BKN070 13 -4.3 30% 75.9 0.0
09 16:15 N 35 G 44 16.09 Mostly Cloudy and Breezy BKN070 13.1 -4.1 30% 75.9 0.0
09 15:55 NW 31 G 48 12.87 Partly Cloudy SCT070 12.6 -4.4 31% 75.87 0.0
09 15:35 NW 37 14.48 Mostly Cloudy and Breezy BKN065 12.6 -4.1 31% 75.87 0.0
09 15:15 NW 30 G 46 14.48 Partly Cloudy SCT065 12.9 -4.3 30% 75.87 0.0
09 14:55 NW 30 G 44 14.48 Mostly Cloudy BKN065 12.6 -3 34% 75.87 0.0
09 14:35 N 33 G 48 14.48 Mostly Cloudy and Breezy BKN060 12.5 -3.5 33% 75.87 0.0
09 14:15 NW 26 G 37 14.48 Mostly Cloudy BKN060 12 -2.7 36% 75.87 0.0
09 13:55 NW 28 G 44 14.48 Mostly Cloudy BKN060 11.4 -3 37% 75.84 0.0
09 13:35 NW 28 G 41 12.87 Partly Cloudy SCT055 10.7 -2.5 40% 75.84 0.0
09 13:15 N 30 G 39 14.48 Partly Cloudy SCT055 10.9 -2.6 39% 75.84 0.0
09 12:55 N 31 G 43 14.48 A Few Clouds FEW050 10.5 -2.3 10.8 4.3 41% 75.84 0.0
09 12:35 NW 26 G 35 14.48 A Few Clouds FEW050 10.3 -2.1 42% 75.84 0.0
09 12:15 N 30 G 41 14.48 Fair CLR 10.1 -2.6 41% 75.82 0.0
09 11:55 NW 30 G 43 14.48 A Few Clouds FEW047 9.7 -1.9 45% 7 75.82 0.0
09 11:35 NW 28 G 43 14.48 A Few Clouds FEW046 9.5 -2.1 45% 6 75.82 0.0
09 11:15 N 28 G 52 14.48 A Few Clouds FEW044 8.8 -1.6 48% 5 75.82 0.0
09 10:55 N 35 G 46 14.48 A Few Clouds and Breezy FEW044 8.3 -2 49% 4 75.79 0.0
09 10:35 N 33 G 57 14.48 A Few Clouds and Breezy FEW044 7.9 -2.1 50% 4 75.79 0.0
09 10:15 N 28 11.27 Fair CLR 7.7 -1.7 52% 4 75.77 0.0
09 09:55 N 39 G 46 12.87 Fair and Breezy CLR 7.3 -2 52% 3 75.74 0.0
09 09:35 N 39 G 46 12.87 Fair and Breezy CLR 7.2 -1.1 56% 3 75.74 0.0
09 09:15 N 35 11.27 Fair and Breezy CLR 6.3 -1.4 58% 2 75.74 0.0
09 08:55 N 30 G 43 11.27 Fair CLR 6 -0.1 65% 2 75.72 0.0
09 08:35 N 31 12.87 Fair CLR 5.6 -0.1 67% 1 75.69 0.0
09 08:15 N 24 12.87 Fair CLR 5.4 0.6 72% 1 75.67 0.0
09 07:55 N 22 14.48 Fair CLR 5.1 1.5 78% 1 75.64 0.0
09 07:35 N 22 G 35 12.87 Fair CLR 5 1.4 78% 1 75.62 0.0
09 07:15 N 19 12.87 Mostly Cloudy BKN075 4.7 2.9 88% 1 75.59 0.0
09 06:55 N 19 14.48 Overcast OVC075 4.2 3.7 7.2 3.1 97% 1 75.54 0.0
09 06:35 N 19 14.48 Overcast OVC075 4.1 3.9 99% 0 75.54 0.0
09 06:15 N 19 14.48 Overcast OVC075 3.8 3.8 100% 0 75.49 0.0
09 05:55 NW 17 14.48 Mostly Cloudy BKN080 3.3 3.3 100% -0 75.46 0.0
09 05:35 NW 17 14.48 A Few Clouds FEW080 3.4 3.4 100% -0 75.44 0.0
09 05:15 NW 17 16.09 Fair CLR 3.3 3.3 100% -0 75.41 0.0
09 04:55 NW 13 16.09 Fair CLR 3.6 3.6 100% 1 75.41 0.0
09 04:35 NW 11 16.09 Fair CLR 3.9 3.9 100% 1 75.39 0.0
09 04:15 NW 11 16.09 Fair CLR 4.6 4.6 100% 2 75.36 0.0
09 03:55 NW 9 14.48 Partly Cloudy SCT047 5.1 5.1 100% 3 75.34 0.0
09 03:35 N 11 16.09 Overcast FEW035 BKN046 OVC060 5.8 5.8 100% 4 75.31 0.0
09 03:15 N 7 16.09 Overcast BKN037 OVC047 6.4 6.4 100% 5 75.29 0.0
09 02:55 N 17 16.09 Overcast BKN038 OVC047 6.6 6.6 100% 4 75.29 0.0
09 02:35 N 9 16.09 Overcast OVC036 6.8 6.8 100% 5 75.29 0.0
09 02:15 N 17 16.09 Overcast SCT036 OVC050 6.7 6.7 100% 4 75.29 0.0
09 01:55 NW 13 16.09 Overcast OVC050 6.7 6.7 100% 4 75.26 0.0
09 01:35 NW 11 16.09 Overcast OVC047 6.9 6.9 100% 5 75.26 0.0
09 01:15 NW 7 11.27 Overcast OVC043 7.1 7.1 100% 6 75.23 0.0
09 00:55 NW 6 9.66 Fog/Mist OVC042 7.1 7.1 16.2 7 100% 75.23 0.0 0.15 0.46
09 00:35 NW 7 8.05 Light Rain Fog/Mist OVC042 7.2 7.2 100% 6 75.26 0.0 0.15
09 00:15 NW 15 6.44 Light Rain Fog/Mist FEW004 BKN040 OVC049 7.7 7.7 100% 5 75.29 0.0 0.1
08 23:55 NW 17 G 35 4.83 Light Rain Fog/Mist SCT005 OVC038 8.2 8.2 100% 6 75.31 0.0 0.25
08 23:35 NW 22 G 44 4.83 Rain Fog/Mist BKN036 OVC045 8.7 8.7 100% 6 75.34 0.0 0.15
08 23:15 NW 22 G 39 8.05 Light Rain Fog/Mist BKN040 BKN047 OVC055 9.4 9.3 99% 7 75.31 0.0 0.03
08 22:55 NW 20 G 44 6.44 Light Rain Fog/Mist FEW005 BKN043 OVC050 10 8.6 91% 8 75.29 0.0 0.05
08 22:35 W 35 G 56 4.83 Light Rain and Breezy FEW005 SCT028 SCT044 BKN050 OVC075 11.5 6.5 72% 75.23 0.0 0.03
08 22:15 W 7 16.09 Mostly Cloudy SCT075 BKN100 BKN120 12.2 0.7 46% 75.13 0.0
08 21:55 W 6 16.09 Mostly Cloudy BKN120 BKN150 13.2 -0.4 39% 75.11 0.0
08 21:35 W 6 16.09 Partly Cloudy SCT140 SCT170 13.2 -0.4 39% 75.11 0.0
08 21:15 W 9 16.09 Fair CLR 13.2 -0.3 40% 75.13 0.0
08 20:55 W 7 16.09 Fair CLR 13.5 -0.8 38% 75.13 0.0
08 20:35 W 11 14.48 Fair CLR 13.9 -1.3 35% 75.16 0.0
08 20:15 W 6 16.09 A Few Clouds FEW090 14.7 -1 34% 75.13 0.0
08 19:55 NW 9 14.48 Mostly Cloudy BKN085 15.3 -1.6 32% 75.16 0.0
08 19:35 NW 11 16.09 Mostly Cloudy BKN085 15.5 -2.2 30% 75.18 0.0
08 19:15 NW 15 G 31 14.48 A Few Clouds FEW085 16.1 -2.6 28% 75.18 0.0
08 18:55 NW 15 16.09 Fair CLR 15.8 -3 19.4 15.8 28% 75.21 0.0
08 18:35 NW 24 G 33 14.48 Fair CLR 16.6 -3 26% 75.23 0.0
08 18:15 NW 22 G 41 8.05 A Few Clouds with Haze FEW100 16.6 -3.7 25% 75.23 0.0
08 17:55 N 35 G 41 9.66 Fair with Haze and Breezy CLR 16.9 -4.1 24% 75.26 0.0
08 17:35 NW 37 G 48 9.66 Fair with Haze and Breezy CLR 17 -4.5 23% 75.26 0.0
08 17:15 NW 33 G 44 9.66 Fair with Haze and Breezy CLR 17 -5.3 21% 75.26 0.0
08 16:55 NW 28 G 46 11.27 Fair CLR 17 -5.7 21% 75.26 0.0
08 16:35 NW 33 G 46 14.48 Fair and Breezy CLR 17.2 -5.6 21% 75.26 0.0
08 16:15 NW 35 G 48 16.09 Fair and Breezy CLR 17.1 -5 22% 75.23 0.0
08 15:55 NW 33 G 54 12.87 A Few Clouds and Breezy FEW080 17.8 -2.6 25% 75.21 0.0
08 15:35 NW 31 G 56 16.09 A Few Clouds FEW080 18.2 -2.8 24% 75.21 0.0
08 15:15 W 37 G 52 12.87 Fair and Breezy CLR 18.3 -2.5 24% 75.18 0.0
08 14:55 NW 26 G 46 14.48 Mostly Cloudy BKN090 18.6 -1.8 25% 75.18 0.0
08 14:35 NW 30 G 46 16.09 Overcast OVC095 18.3 -3.6 22% 75.18 0.0
08 14:15 NW 28 G 43 16.09 Overcast OVC095 18.4 -5.1 20% 75.18 0.0
08 13:55 NW 22 G 39 14.48 Mostly Cloudy BKN095 17.8 -5.6 20% 75.21 0.0
08 13:35 W 22 G 37 12.87 Mostly Cloudy BKN100 18.7 -5.4 19% 75.23 0.0
08 13:15 W 19 16.09 Partly Cloudy SCT100 18 -5.5 20% 75.26 0.0
08 12:55 W 24 G 33 16.09 Mostly Cloudy BKN100 17.9 -5.6 17.9 3.7 20% 75.29 0.0
08 12:35 W 17 16.09 Partly Cloudy SCT100 17.2 -6.1 20% 75.29 0.0
08 12:15 W 15 16.09 Fair CLR 16.8 -6.3 20% 75.31 0.0
08 11:55 W 17 16.09 Mostly Cloudy BKN080 16.3 -5.3 22% 75.34 0.0
08 11:35 W 19 16.09 Overcast OVC080 16.5 -5.3 22% 75.34 0.0
08 11:15 W 13 16.09 Overcast OVC090 15.3 -5.4 24% 75.36 0.0
08 10:55 SW 13 16.09 Overcast OVC085 14.7 -4.2 27% 75.36 0.0
08 10:35 SW 13 16.09 Overcast BKN080 OVC095 14.8 -3.6 28% 75.39 0.0
08 10:15 SW 6 14.48 Overcast BKN090 OVC120 14.1 -4.3 28% 75.39 0.0
08 09:55 S 11 16.09 Overcast SCT090 OVC110 12.7 -3.7 32% 75.39 0.0
08 09:35 SW 11 14.48 Overcast BKN090 OVC110 12.6 -3.1 34% 75.41 0.0
08 09:15 S 9 14.48 Overcast BKN085 OVC110 11.4 -2.5 38% 75.44 0.0
08 08:55 S 7 14.48 Overcast OVC085 10.6 -0.9 45% 75.44 0.0
08 08:35 S 6 12.87 Overcast BKN090 OVC110 9.5 -0.9 49% 75.44 0.0
08 08:15 S 6 14.48 Mostly Cloudy BKN100 8 0.1 58% 75.46 0.0
08 07:55 S 6 12.87 A Few Clouds FEW110 6.5 1.4 70% 75.46 0.0
08 07:35 Calm 14.48 A Few Clouds FEW120 5.1 1.2 76% 75.46 0.0
08 07:15 Calm 12.87 A Few Clouds FEW120 4.8 1.8 81% 75.46 0.0
08 06:55 Calm 14.48 A Few Clouds FEW100 3 1.3 3.1 0.1 89% 75.46 0.0
08 06:35 Calm 12.87 Mostly Cloudy BKN100 3 0.3 83% 75.46 0.0
08 06:15 S 6 11.27 Overcast OVC090 1.9 -0.4 85% 75.46 0.0
08 05:55 Calm 14.48 Overcast OVC100 0.9 -0.6 90% 75.46 0.0
08 05:35 S 6 14.48 Overcast BKN085 OVC100 1.3 -0.8 86% 75.49 0.0
08 05:15 S 6 16.09 Overcast OVC085 0.8 -1.7 84% 75.49 0.0
08 04:55 Calm 16.09 Overcast OVC095 1.2 -1.6 82% 75.51 0.0
08 04:35 Calm 16.09 Mostly Cloudy BKN100 1.4 -2.6 75% 75.51 0.0
08 04:15 Calm 16.09 Mostly Cloudy SCT085 BKN100 0.8 -1.9 82% 75.51 0.0
08 03:55 Calm 16.09 A Few Clouds FEW095 0.8 -1.4 85% 75.51 0.0
08 03:35 Calm 14.48 Fair CLR 0.4 -1.6 87% 75.51 0.0
08 03:15 NE 6 16.09 A Few Clouds FEW300 0.5 -1 90% 75.54 0.0
08 02:55 Calm 16.09 Fair CLR 1.3 1.1 99% 75.54 0.0
08 02:35 Calm 16.09 Fair CLR 1.6 0.5 93% 75.54 0.0
08 02:15 Calm 16.09 Fair CLR 2 0.9 93% 75.54 0.0
08 01:55 Calm 16.09 Fair CLR 2.2 -0.3 84% 75.54 0.0
08 01:35 Calm 16.09 Fair CLR 2.9 -1.9 71% 75.54 0.0
08 01:15 Calm 16.09 Fair CLR 2.6 -4.3 61% 75.57 0.0
08 00:55 Calm 16.09 Fair CLR 2.5 -4.3 14 2.5 61% 75.57 0.0
08 00:35 Calm 16.09 A Few Clouds FEW320 3 -4.8 57% 75.57 0.0
08 00:15 Calm 16.09 A Few Clouds FEW320 3.7 -4.6 55% 75.57 0.0
07 23:55 Calm 16.09 Fair CLR 4.3 -5 51% 75.57 0.0
07 23:35 Calm 16.09 Fair CLR 4.6 -5.1 50% 75.59 0.0
07 23:15 Calm 16.09 Fair CLR 5 -5.2 48% 75.59 0.0
07 22:55 Calm 16.09 Fair CLR 5.7 -5.6 44% 75.59 0.0
07 22:35 Calm 16.09 Fair CLR 6.5 -5.5 42% 75.59 0.0
07 22:15 Calm 16.09 Fair CLR 7.3 -5.8 39% 75.59 0.0
07 21:55 N 6 16.09 Fair CLR 7.3 -6 39% 75.59 0.0
07 21:35 N 7 16.09 Fair CLR 8 -5.1 39% 7 75.59 0.0
07 21:15 N 7 16.09 Fair CLR 8.2 -5.9 37% 7 75.59 0.0
07 20:55 N 11 14.48 Fair CLR 9.4 -6.1 33% 8 75.57 0.0
07 20:35 N 13 14.48 Fair CLR 10.1 -5.5 33% 75.54 0.0
07 20:15 N 15 14.48 Fair CLR 11.3 -5.9 30% 75.54 0.0
07 19:55 NW 15 16.09 Fair CLR 12.8 -7 25% 75.54 0.0
07 19:35 NW 15 16.09 Fair CLR 13.5 -7.5 23% 75.51 0.0
07 19:15 NW 19 16.09 Fair CLR 13.8 -7.1 23% 75.51 0.0
07 18:55 NW 13 16.09 Fair CLR 14.1 -7.3 14.8 10.6 22% 75.54 0.0
07 18:35 NW 22 G 31 16.09 A Few Clouds FEW090 14.4 -6.9 22% 75.54 0.0
07 18:15 NW 20 G 37 14.48 Fair CLR 14.1 -7.3 22% 75.54 0.0
07 17:55 NW 19 11.27 A Few Clouds FEW090 14.5 -7.5 21% 75.54 0.0
07 17:35 NW 20 9.66 A Few Clouds with Haze FEW090 13.8 -7.3 23% 75.54 0.0
07 17:15 W 19 9.66 Partly Cloudy with Haze SCT085 14.5 -7 22% 75.57 0.0
07 16:55 NW 20 G 33 9.66 A Few Clouds with Haze FEW085 13.5 -7.2 23% 75.57 0.0
07 16:35 NW 26 11.27 Partly Cloudy SCT085 13.8 -7.1 23% 75.59 0.0
07 16:15 NW 24 G 33 12.87 Partly Cloudy SCT085 13.9 -6.8 23% 75.59 0.0
07 15:55 NW 26 G 35 8.05 Mostly Cloudy with Haze BKN080 BKN095 13.9 -6.5 24% 75.62 0.0
07 15:35 NW 17 11.27 Partly Cloudy SCT080 13.3 -6.5 25% 75.62 0.0
07 15:15 NW 24 G 35 12.87 Mostly Cloudy BKN080 12.8 -6.9 25% 75.64 0.0
07 14:55 W 19 G 33 16.09 Partly Cloudy SCT080 13.3 -6.5 25% 75.64 0.0
07 14:35 W 20 14.48 Partly Cloudy SCT080 12.3 -6.9 26% 75.64 0.0
07 14:15 NW 15 16.09 Mostly Cloudy BKN080 12.7 -6.3 26% 75.64 0.0
07 13:55 NW 15 16.09 Mostly Cloudy BKN075 12.1 -7.1 26% 75.67 0.0
07 13:35 NW 19 G 26 16.09 Mostly Cloudy BKN075 BKN090 12.2 -6.7 26% 75.67 0.0
07 13:20 W 17 G 26 16.09 Overcast OVC070 11.5 -6.8 27% 75.69 0.0
07 12:55 W 11 G 26 16.09 Overcast OVC070 11.3 -5.6 11.3 1.4 30% 75.72 0.0
07 12:35 W 17 16.09 Overcast OVC065 10.4 -5.3 33% 75.74 0.0
07 12:15 NW 20 G 30 16.09 Overcast BKN060 OVC075 10.3 -5.6 32% 75.74 0.0
Date Time (cdt) Wind (kph) Vis. (km) Weather Sky Cond. Air Dwpt Max. Min. Relative Humidity Wind Chill (°C) Heat Index (°C) altimeter (cm) sea level (mb) 1 hr 3 hr 6 hr
6 hour
Temperature (ºC) Pressure Precipitation (cm)